Time;durP1;ratioP1;P1;durP2;ratioP2;P2;SDS_P1;SDS_P2;PMS_P1;PMS_P2;Temp;Humidity;BMP_temperature;BMP_pressure;BME280_temperature;BME280_humidity;BME280_pressure;Samples;Min_cycle;Max_cycle;Signal;HPM_P1;HPM_P2
2022/01/21 00:02:13;;;;;;;11.57;7.30;;;-0.20;99.90;;;;;;5033250;28;20040;-51
2022/01/21 00:04:38;;;;;;;12.02;6.85;;;-0.20;99.90;;;;;;5032911;28;20028;-50
2022/01/21 00:07:04;;;;;;;12.52;7.57;;;-0.20;99.90;;;;;;5032722;28;20025;-50
2022/01/21 00:09:30;;;;;;;15.07;8.25;;;-0.20;99.90;;;;;;5033398;28;20036;-52
2022/01/21 00:11:55;;;;;;;12.32;9.27;;;-0.20;99.90;;;;;;5033204;28;20030;-53
2022/01/21 00:14:21;;;;;;;17.63;7.20;;;-0.10;99.90;;;;;;5031328;28;20030;-52
2022/01/21 00:16:47;;;;;;;11.60;6.80;;;-0.10;99.90;;;;;;5033151;28;20428;-50
2022/01/21 00:19:15;;;;;;;11.55;6.22;;;-0.10;99.90;;;;;;5032880;28;20114;-51
2022/01/21 00:30:16;;;;;;;14.00;6.47;;;0.00;99.90;;;;;;5033232;28;20044;-51
2022/01/21 00:32:45;;;;;;;12.85;6.93;;;0.00;99.90;;;;;;5032604;28;20393;-50
2022/01/21 00:35:11;;;;;;;17.20;6.32;;;0.00;99.90;;;;;;5032325;28;20036;-53
2022/01/21 00:37:39;;;;;;;7.95;6.03;;;0.00;99.90;;;;;;5032143;28;20484;-49
2022/01/21 00:40:08;;;;;;;12.27;7.03;;;0.00;99.90;;;;;;5032955;28;20090;-50
2022/01/21 00:45:03;;;;;;;11.57;6.18;;;0.00;99.90;;;;;;5032591;28;20048;-50
2022/01/21 00:47:29;;;;;;;12.20;6.22;;;0.00;99.90;;;;;;5032399;28;20065;-54
2022/01/21 00:49:56;;;;;;;12.00;6.20;;;0.00;99.90;;;;;;5031812;28;20045;-50
2022/01/21 00:52:22;;;;;;;11.75;5.43;;;0.00;99.90;;;;;;5032698;28;20022;-50
2022/01/21 00:54:47;;;;;;;12.52;5.90;;;0.00;99.90;;;;;;5032012;28;20645;-50
2022/01/21 00:57:13;;;;;;;32.25;13.85;;;0.00;99.90;;;;;;5032446;28;20033;-50
2022/01/21 00:59:39;;;;;;;36.45;13.27;;;0.00;99.90;;;;;;5032118;28;20030;-50
2022/01/21 01:02:05;;;;;;;17.63;8.15;;;0.00;99.90;;;;;;5032020;28;20108;-50
2022/01/21 01:04:31;;;;;;;25.45;11.93;;;0.00;99.90;;;;;;5032191;28;20025;-51
2022/01/21 01:06:58;;;;;;;34.60;12.35;;;0.00;99.90;;;;;;5032206;28;20056;-51
2022/01/21 01:09:23;;;;;;;30.40;11.25;;;0.00;99.90;;;;;;5032488;28;20021;-53
2022/01/21 01:20:04;;;;;;;20.38;6.70;;;-0.10;99.90;;;;;;5032081;28;20091;-55
2022/01/21 01:22:46;;;;;;;20.08;8.52;;;0.00;99.90;;;;;;5030721;28;20060;-51
2022/01/21 01:27:57;;;;;;;15.05;5.68;;;-0.10;99.90;;;;;;5031981;28;20120;-54
2022/01/21 01:30:25;;;;;;;7.25;3.38;;;-0.60;99.90;;;;;;5031706;28;20108;-54
2022/01/21 01:32:53;;;;;;;6.10;3.92;;;-1.00;99.90;;;;;;5030697;28;20030;-51
2022/01/21 01:35:20;;;;;;;5.38;3.05;;;-1.30;99.90;;;;;;5031985;28;20028;-53
2022/01/21 01:40:35;;;;;;;4.90;3.30;;;-1.50;99.90;;;;;;5031501;28;20032;-51
2022/01/21 01:50:58;;;;;;;;;;;-1.50;99.90;;;;;;5031986;28;20036;-55
2022/01/21 01:53:27;;;;;;;5.30;3.22;;;-1.50;99.90;;;;;;5031608;28;19905;-54
2022/01/21 01:55:53;;;;;;;3.80;3.45;;;-1.50;99.90;;;;;;5030809;28;20071;-52
2022/01/21 01:58:19;;;;;;;3.15;2.78;;;-1.50;99.90;;;;;;5030971;28;20025;-52
2022/01/21 02:00:45;;;;;;;3.40;2.72;;;-1.50;99.90;;;;;;5028581;28;20484;-53
2022/01/21 02:03:15;;;;;;;5.15;3.20;;;-1.50;99.90;;;;;;5030759;28;20155;-50
2022/01/21 02:05:44;;;;;;;8.77;3.05;;;-1.60;99.90;;;;;;5030663;28;20381;-52
2022/01/21 02:08:11;;;;;;;4.50;2.85;;;-1.70;99.90;;;;;;5030883;28;20569;-53
2022/01/21 02:10:39;;;;;;;3.60;3.30;;;-1.70;99.90;;;;;;5030888;28;20496;-52
2022/01/21 02:13:17;;;;;;;2.78;2.58;;;-1.70;99.90;;;;;;5031479;28;20018;-51
2022/01/21 02:15:43;;;;;;;16.45;4.50;;;-1.70;99.90;;;;;;5031173;28;20045;-51
2022/01/21 02:23:38;;;;;;;3.00;2.80;;;-1.90;99.90;;;;;;5031311;28;20116;-52
2022/01/21 02:26:03;;;;;;;3.10;2.90;;;-1.80;99.90;;;;;;5031321;28;20037;-50
2022/01/21 02:28:29;;;;;;;5.47;2.88;;;-1.80;99.90;;;;;;5031066;28;20022;-52
2022/01/21 02:30:57;;;;;;;4.22;2.72;;;-1.70;99.90;;;;;;5030518;28;20025;-50
2022/01/21 02:33:23;;;;;;;11.27;3.67;;;-1.80;99.90;;;;;;5030472;28;20021;-52
2022/01/21 02:35:50;;;;;;;4.07;3.55;;;-1.90;99.90;;;;;;5029848;28;20649;-51
2022/01/21 02:38:16;;;;;;;2.92;2.72;;;-1.90;99.90;;;;;;5030984;28;20119;-51
2022/01/21 02:40:45;;;;;;;7.32;3.13;;;-1.80;99.90;;;;;;5031049;28;20057;-50
2022/01/21 02:43:12;;;;;;;4.88;3.05;;;-1.90;99.90;;;;;;5031217;28;20047;-51
2022/01/21 02:45:39;;;;;;;4.20;2.70;;;-1.90;99.90;;;;;;5030895;28;20021;-52
2022/01/21 02:48:08;;;;;;;5.18;3.00;;;-2.00;99.90;;;;;;5031150;28;20087;-51
2022/01/21 02:50:34;;;;;;;5.28;3.80;;;-2.00;99.90;;;;;;5031223;28;20103;-51
2022/01/21 02:55:49;;;;;;;2.90;2.55;;;-2.00;99.90;;;;;;5038914;28;20124;-53
2022/01/21 02:58:15;;;;;;;5.15;2.58;;;-2.00;99.90;;;;;;5030964;28;20168;-53
2022/01/21 03:00:40;;;;;;;3.38;3.13;;;-2.00;99.90;;;;;;5030819;28;20107;-55
2022/01/21 03:03:06;;;;;;;3.08;2.38;;;-1.90;99.90;;;;;;5030614;28;20026;-54
2022/01/21 03:05:34;;;;;;;4.55;2.90;;;-1.90;99.90;;;;;;5030883;28;20038;-53
2022/01/21 03:08:00;;;;;;;11.93;4.40;;;-1.80;99.90;;;;;;5030502;28;20486;-54
2022/01/21 03:10:26;;;;;;;5.50;3.00;;;-1.80;99.90;;;;;;5030841;28;20018;-53
2022/01/21 03:12:53;;;;;;;5.82;3.83;;;-1.80;99.90;;;;;;5032154;28;20147;-52
2022/01/21 03:15:19;;;;;;;5.88;3.88;;;-1.80;99.90;;;;;;5033827;28;20551;-53
2022/01/21 03:17:44;;;;;;;7.07;3.35;;;-1.90;99.90;;;;;;5033930;28;20377;-50
2022/01/21 03:20:11;;;;;;;3.47;3.13;;;-1.90;99.90;;;;;;5032131;28;20033;-51
2022/01/21 03:22:36;;;;;;;11.05;4.65;;;-1.90;99.90;;;;;;5033538;28;20096;-55
2022/01/21 03:25:05;;;;;;;9.25;3.55;;;-1.90;99.90;;;;;;5032773;28;20029;-54
2022/01/21 03:27:31;;;;;;;7.28;3.63;;;-1.90;99.90;;;;;;5034093;28;20021;-51
2022/01/21 03:29:57;;;;;;;4.78;3.17;;;-2.00;99.90;;;;;;5034151;28;20048;-55
2022/01/21 03:32:23;;;;;;;12.07;3.85;;;-1.90;99.90;;;;;;5034132;28;20107;-51
2022/01/21 03:34:49;;;;;;;6.10;3.72;;;-2.00;99.90;;;;;;5034113;28;20489;-54
2022/01/21 03:37:15;;;;;;;7.40;3.60;;;-2.00;99.90;;;;;;5034195;28;20025;-54
2022/01/21 03:39:41;;;;;;;12.13;4.13;;;-1.90;99.90;;;;;;5033804;28;20038;-51
2022/01/21 03:42:06;;;;;;;7.03;4.75;;;-2.00;99.90;;;;;;5034079;28;20037;-52
2022/01/21 03:44:32;;;;;;;6.85;3.78;;;-2.00;99.90;;;;;;5033615;28;20025;-51
2022/01/21 03:46:58;;;;;;;10.20;3.35;;;-2.00;99.90;;;;;;5033539;28;20079;-55
2022/01/21 03:49:23;;;;;;;4.38;3.25;;;-2.00;99.90;;;;;;5033438;28;20084;-51
2022/01/21 03:51:49;;;;;;;4.32;3.20;;;-2.00;99.90;;;;;;5033648;28;20230;-50
2022/01/21 03:54:15;;;;;;;6.78;3.33;;;-2.00;99.90;;;;;;5033314;28;20564;-50
2022/01/21 03:56:40;;;;;;;12.38;3.08;;;-2.00;99.90;;;;;;5033597;28;20037;-50
2022/01/21 03:59:07;;;;;;;5.30;3.38;;;-2.00;99.90;;;;;;5032952;28;20047;-52
2022/01/21 04:01:33;;;;;;;8.82;3.88;;;-2.10;99.90;;;;;;5033230;28;20056;-51
2022/01/21 04:03:58;;;;;;;12.25;4.30;;;-2.10;99.90;;;;;;5033048;28;20057;-51
2022/01/21 04:06:24;;;;;;;8.02;3.20;;;-2.10;99.90;;;;;;5033641;28;20046;-52
2022/01/21 04:08:50;;;;;;;11.95;3.50;;;-2.00;99.90;;;;;;5033219;28;20080;-52
2022/01/21 04:11:16;;;;;;;9.15;3.63;;;-2.10;99.90;;;;;;5033276;28;20045;-52
2022/01/21 04:13:43;;;;;;;12.10;4.05;;;-2.00;99.90;;;;;;5032394;28;20026;-51
2022/01/21 04:16:08;;;;;;;8.05;3.50;;;-2.00;99.90;;;;;;5033237;28;20049;-50
2022/01/21 04:18:34;;;;;;;8.10;2.92;;;-2.10;99.90;;;;;;5033309;28;20029;-51
2022/01/21 04:21:00;;;;;;;7.18;3.80;;;-2.10;99.90;;;;;;5032762;28;20093;-49
2022/01/21 04:23:26;;;;;;;4.47;3.33;;;-2.00;99.90;;;;;;5032062;28;20025;-50
2022/01/21 04:25:52;;;;;;;8.57;3.83;;;-2.00;99.90;;;;;;5032689;28;20491;-51
2022/01/21 04:28:19;;;;;;;9.70;3.50;;;-2.00;99.90;;;;;;5032698;28;20021;-53
2022/01/21 04:30:45;;;;;;;6.70;4.00;;;-2.00;99.90;;;;;;5032675;28;20018;-50
2022/01/21 04:33:11;;;;;;;9.00;3.55;;;-2.00;99.90;;;;;;5032810;28;20014;-50
2022/01/21 04:35:37;;;;;;;5.75;4.60;;;-2.00;99.90;;;;;;5031494;28;20026;-51
2022/01/21 04:38:06;;;;;;;13.35;4.25;;;-1.90;99.90;;;;;;5036057;28;20430;-51
2022/01/21 04:40:37;;;;;;;6.35;3.38;;;-1.90;99.90;;;;;;5033699;28;20025;-52
2022/01/21 04:48:32;;;;;;;12.10;3.50;;;-1.90;99.90;;;;;;5012679;28;20029;-54
2022/01/21 04:51:11;;;;;;;6.82;3.03;;;-1.90;99.90;;;;;;5012591;28;20038;-52
2022/01/21 04:53:37;;;;;;;6.03;3.65;;;-1.90;99.90;;;;;;5012509;28;20022;-54
2022/01/21 04:56:04;;;;;;;22.08;3.47;;;-1.90;99.90;;;;;;5012473;28;20026;-54
2022/01/21 04:58:30;;;;;;;10.07;3.83;;;-1.90;99.90;;;;;;5012650;28;20505;-54
2022/01/21 05:00:55;;;;;;;10.85;3.83;;;-1.80;99.90;;;;;;5012335;28;20370;-51
2022/01/21 05:03:21;;;;;;;8.00;4.10;;;-1.80;99.90;;;;;;5012362;28;20037;-51
2022/01/21 05:05:47;;;;;;;5.68;3.95;;;-1.80;99.90;;;;;;5012198;28;20062;-54
2022/01/21 05:08:24;;;;;;;6.63;3.22;;;-1.80;99.90;;;;;;5012448;28;20030;-50
2022/01/21 05:10:50;;;;;;;8.77;3.58;;;-1.90;99.90;;;;;;5012281;28;20049;-51
2022/01/21 05:13:19;;;;;;;7.57;3.42;;;-1.90;99.90;;;;;;5012533;28;20382;-51
2022/01/21 05:16:02;;;;;;;3.67;2.95;;;-1.90;99.90;;;;;;5012152;28;20179;-55
2022/01/21 05:18:27;;;;;;;7.85;4.60;;;-1.90;99.90;;;;;;5012510;28;20049;-53
2022/01/21 05:20:53;;;;;;;6.43;3.58;;;-1.90;99.90;;;;;;5012121;28;20030;-51
2022/01/21 05:23:19;;;;;;;5.35;2.75;;;-1.90;99.90;;;;;;5012157;28;20041;-54
2022/01/21 05:25:44;;;;;;;12.43;4.47;;;-1.90;99.90;;;;;;5011903;28;20032;-55
2022/01/21 05:28:11;;;;;;;10.60;3.88;;;-1.90;99.90;;;;;;5012275;28;20481;-52
2022/01/21 05:30:37;;;;;;;6.18;3.17;;;-1.90;99.90;;;;;;5012162;28;20658;-51
2022/01/21 05:33:02;;;;;;;8.18;3.45;;;-1.90;99.90;;;;;;5012183;28;20101;-51
2022/01/21 05:35:28;;;;;;;6.35;3.10;;;-1.80;99.90;;;;;;5012021;28;20030;-51
2022/01/21 05:37:53;;;;;;;8.25;2.78;;;-1.80;99.90;;;;;;5011167;28;20102;-51
2022/01/21 05:40:20;;;;;;;9.90;3.40;;;-1.80;99.90;;;;;;5011754;28;20709;-50
2022/01/21 05:42:46;;;;;;;9.95;3.30;;;-1.80;99.90;;;;;;5011554;28;20034;-52
2022/01/21 05:47:56;;;;;;;3.35;3.05;;;-1.80;99.90;;;;;;5011154;28;20033;-51
2022/01/21 05:50:21;;;;;;;7.07;3.47;;;-1.80;99.90;;;;;;5011625;28;20022;-49
2022/01/21 05:52:48;;;;;;;7.53;3.75;;;-1.90;99.90;;;;;;5011582;28;20030;-51
2022/01/21 05:55:15;;;;;;;5.35;3.47;;;-1.90;99.90;;;;;;5011303;28;20051;-50
2022/01/21 05:57:41;;;;;;;7.93;3.15;;;-1.80;99.90;;;;;;5011120;28;20026;-54
2022/01/21 06:00:09;;;;;;;9.82;3.65;;;-1.80;99.90;;;;;;5010576;28;20022;-52
2022/01/21 06:02:35;;;;;;;11.05;3.47;;;-1.80;99.90;;;;;;5010353;28;20025;-51
2022/01/21 06:05:01;;;;;;;8.77;3.95;;;-1.90;99.90;;;;;;5011502;28;20049;-52
2022/01/21 06:07:27;;;;;;;6.60;3.70;;;-1.90;99.90;;;;;;5011637;28;20022;-51
2022/01/21 06:09:52;;;;;;;14.35;4.00;;;-1.80;99.90;;;;;;5011226;28;20030;-50
2022/01/21 06:12:18;;;;;;;10.52;4.15;;;-1.80;99.90;;;;;;5011430;28;20022;-51
2022/01/21 06:14:44;;;;;;;15.45;6.40;;;-1.80;99.90;;;;;;5011117;28;20496;-50
2022/01/21 06:17:12;;;;;;;6.53;3.70;;;-1.70;99.90;;;;;;5011494;28;20037;-51
2022/01/21 06:19:38;;;;;;;6.95;4.03;;;-1.80;99.90;;;;;;5011598;28;20029;-54
2022/01/21 06:22:04;;;;;;;8.93;5.38;;;-1.90;99.90;;;;;;5011667;28;20104;-51
2022/01/21 06:24:29;;;;;;;20.77;10.35;;;-1.80;99.90;;;;;;5011456;28;20030;-51
2022/01/21 06:27:00;;;;;;;9.07;4.00;;;-1.90;99.90;;;;;;5011343;28;20087;-51
2022/01/21 06:29:25;;;;;;;8.45;3.75;;;-1.80;99.90;;;;;;5011482;28;20022;-51
2022/01/21 06:31:51;;;;;;;6.22;3.38;;;-1.80;99.90;;;;;;5009986;28;20037;-54
2022/01/21 06:34:17;;;;;;;7.65;4.20;;;-1.80;99.90;;;;;;5011430;28;20117;-54
2022/01/21 06:36:42;;;;;;;7.25;3.90;;;-1.80;99.90;;;;;;5011116;28;20504;-53
2022/01/21 06:39:08;;;;;;;10.43;4.90;;;-1.80;99.90;;;;;;5009917;28;20026;-50
2022/01/21 06:41:34;;;;;;;8.45;3.63;;;-2.00;99.90;;;;;;5011353;28;20037;-54
2022/01/21 06:44:00;;;;;;;7.72;4.15;;;-2.10;99.90;;;;;;5009576;28;20037;-51
2022/01/21 06:46:26;;;;;;;29.90;15.13;;;-2.20;99.90;;;;;;5011342;28;20022;-53
2022/01/21 06:48:52;;;;;;;14.40;5.50;;;-2.30;99.90;;;;;;5014695;28;20029;-51
2022/01/21 06:51:17;;;;;;;16.88;7.05;;;-2.40;99.90;;;;;;5014849;28;20157;-52
2022/01/21 06:53:43;;;;;;;11.57;4.82;;;-2.50;99.90;;;;;;5013146;28;20433;-53
2022/01/21 06:56:09;;;;;;;11.13;4.70;;;-2.60;99.90;;;;;;5013412;28;20436;-53
2022/01/21 06:58:34;;;;;;;12.93;4.00;;;-2.80;99.90;;;;;;5014162;28;20048;-53
2022/01/21 07:01:00;;;;;;;5.63;4.60;;;-2.90;99.90;;;;;;5014197;28;20022;-51
2022/01/21 07:03:26;;;;;;;7.57;4.65;;;-2.90;99.90;;;;;;5014744;28;20033;-50
2022/01/21 07:05:51;;;;;;;9.85;5.05;;;-3.00;99.90;;;;;;5014622;28;20026;-54
2022/01/21 07:08:17;;;;;;;9.32;6.03;;;-3.00;99.90;;;;;;5014556;28;20025;-53
2022/01/21 07:10:44;;;;;;;16.95;5.00;;;-3.10;99.90;;;;;;5014459;28;20026;-51
2022/01/21 07:13:11;;;;;;;9.38;4.22;;;-3.30;99.90;;;;;;5014619;28;20053;-53
2022/01/21 07:15:37;;;;;;;6.43;4.45;;;-3.30;99.90;;;;;;5014450;28;20124;-53
2022/01/21 07:18:02;;;;;;;8.75;4.30;;;-3.30;99.90;;;;;;5014692;28;20121;-53
2022/01/21 07:20:28;;;;;;;12.88;4.32;;;-3.30;99.90;;;;;;5014590;28;20036;-52
2022/01/21 07:22:54;;;;;;;14.43;6.50;;;-3.40;99.90;;;;;;5014169;28;20022;-49
2022/01/21 07:25:19;;;;;;;22.52;4.50;;;-3.40;99.90;;;;;;5014448;28;20034;-52
2022/01/21 07:27:46;;;;;;;12.48;6.18;;;-3.40;99.90;;;;;;5014086;28;20025;-52
2022/01/21 07:30:13;;;;;;;7.57;5.18;;;-3.40;99.90;;;;;;5014092;28;20022;-51
2022/01/21 07:32:43;;;;;;;10.05;4.20;;;-3.40;99.90;;;;;;5014128;28;20437;-49
2022/01/21 07:35:10;;;;;;;13.25;5.85;;;-3.40;99.90;;;;;;5014256;28;20053;-50
2022/01/21 07:37:36;;;;;;;13.32;6.43;;;-3.40;99.90;;;;;;5013048;28;20469;-52
2022/01/21 07:40:03;;;;;;;17.67;6.53;;;-3.40;99.90;;;;;;5014394;28;20032;-54
2022/01/21 07:42:29;;;;;;;7.57;5.45;;;-3.40;99.90;;;;;;5014292;28;20117;-54
2022/01/21 07:44:55;;;;;;;17.83;5.22;;;-3.40;99.90;;;;;;5013643;28;20568;-52
2022/01/21 07:47:21;;;;;;;10.73;4.90;;;-3.40;99.90;;;;;;5014088;28;20018;-49
2022/01/21 07:49:47;;;;;;;7.28;6.00;;;-3.30;99.90;;;;;;5013837;28;20347;-51
2022/01/21 07:52:13;;;;;;;9.75;5.57;;;-3.30;99.90;;;;;;5014023;28;20033;-50
2022/01/21 07:54:38;;;;;;;5.80;4.70;;;-3.30;99.90;;;;;;5013876;28;20071;-50
2022/01/21 07:57:04;;;;;;;5.00;3.90;;;-3.20;99.90;;;;;;5013851;28;20021;-53
2022/01/21 07:59:30;;;;;;;7.85;4.10;;;-3.20;99.90;;;;;;5013876;28;20030;-53
2022/01/21 08:01:57;;;;;;;9.43;3.95;;;-3.10;99.90;;;;;;5013712;28;20038;-51
2022/01/21 08:04:23;;;;;;;7.40;4.63;;;-3.00;99.90;;;;;;5013624;28;20037;-49
2022/01/21 08:06:49;;;;;;;10.38;5.10;;;-3.00;99.90;;;;;;5013730;28;20022;-49
2022/01/21 08:09:14;;;;;;;8.05;4.28;;;-2.90;99.90;;;;;;5013537;28;20026;-53
2022/01/21 08:11:40;;;;;;;12.90;4.60;;;-2.80;99.90;;;;;;5013412;28;20026;-51
2022/01/21 08:14:06;;;;;;;12.82;4.43;;;-2.70;99.90;;;;;;5013433;28;20025;-52
2022/01/21 08:16:35;;;;;;;11.13;4.70;;;-2.70;99.90;;;;;;5013521;28;20038;-53
2022/01/21 08:19:03;;;;;;;7.32;3.97;;;-2.60;99.90;;;;;;5013172;28;20071;-51
2022/01/21 08:21:28;;;;;;;11.35;4.43;;;-2.60;99.90;;;;;;5013478;28;20401;-51
2022/01/21 08:23:55;;;;;;;12.77;4.75;;;-2.50;99.90;;;;;;5013206;28;20113;-52
2022/01/21 08:26:26;;;;;;;11.20;4.38;;;-2.50;99.90;;;;;;5013379;28;20493;-53
2022/01/21 08:28:52;;;;;;;5.78;3.70;;;-2.40;99.90;;;;;;5013125;28;20026;-54
2022/01/21 08:31:18;;;;;;;7.78;3.72;;;-2.30;99.90;;;;;;5013205;28;20446;-52
2022/01/21 08:33:44;;;;;;;15.50;4.07;;;-2.20;99.90;;;;;;5012683;28;20022;-54
2022/01/21 08:36:10;;;;;;;8.80;3.85;;;-2.10;99.90;;;;;;5011788;28;20472;-53
2022/01/21 08:38:36;;;;;;;9.32;4.28;;;-1.90;99.90;;;;;;5013124;28;20034;-52
2022/01/21 08:41:02;;;;;;;7.93;4.65;;;-1.80;99.90;;;;;;5013049;28;20072;-53
2022/01/21 08:43:28;;;;;;;6.97;3.50;;;-1.70;99.90;;;;;;5013168;28;20373;-53
2022/01/21 08:45:53;;;;;;;8.65;4.43;;;-1.70;99.90;;;;;;5011438;28;20034;-57
2022/01/21 08:48:19;;;;;;;16.00;4.90;;;-1.70;99.90;;;;;;5012808;28;20113;-53
2022/01/21 08:50:45;;;;;;;18.77;4.63;;;-1.80;99.90;;;;;;5012794;28;20518;-50
2022/01/21 08:55:55;;;;;;;9.23;5.05;;;-1.70;99.90;;;;;;5012566;28;20037;-51
2022/01/21 08:58:21;;;;;;;12.70;4.50;;;-1.60;99.90;;;;;;5011020;28;20025;-54
2022/01/21 09:00:47;;;;;;;7.75;3.83;;;-1.60;99.90;;;;;;5012205;28;20040;-52
2022/01/21 09:03:12;;;;;;;12.40;4.72;;;-1.60;99.90;;;;;;5020523;28;20116;-51
2022/01/21 09:05:38;;;;;;;10.52;4.05;;;-1.60;99.90;;;;;;5030472;28;20053;-50
2022/01/21 09:08:04;;;;;;;17.70;4.35;;;-1.60;99.90;;;;;;5032353;28;20124;-52
2022/01/21 09:10:30;;;;;;;5.35;4.10;;;-1.50;99.90;;;;;;5031663;28;20091;-50
2022/01/21 09:12:55;;;;;;;18.88;4.93;;;-1.40;99.90;;;;;;5031962;28;20036;-51
2022/01/21 09:15:25;;;;;;;4.53;4.13;;;-1.30;99.90;;;;;;5031267;28;20052;-50
2022/01/21 09:17:51;;;;;;;8.90;4.68;;;-1.20;99.90;;;;;;5031763;28;20021;-51
2022/01/21 09:20:17;;;;;;;6.40;4.53;;;-1.20;99.90;;;;;;5031913;28;20465;-49
2022/01/21 09:22:43;;;;;;;13.07;4.57;;;-1.20;99.90;;;;;;5031757;28;20042;-50
2022/01/21 09:25:09;;;;;;;10.93;5.50;;;-1.20;99.90;;;;;;5031858;28;20160;-51
2022/01/21 09:27:35;;;;;;;8.48;4.03;;;-0.90;99.90;;;;;;5030478;28;20124;-54
2022/01/21 09:30:02;;;;;;;5.53;4.25;;;-0.70;99.90;;;;;;5031692;28;20056;-51
2022/01/21 09:32:28;;;;;;;14.20;4.50;;;-0.50;99.90;;;;;;5031798;28;20022;-50
2022/01/21 09:34:53;;;;;;;8.98;4.35;;;-0.40;99.90;;;;;;5031731;28;20487;-53
2022/01/21 09:37:19;;;;;;;6.55;3.70;;;-0.20;99.90;;;;;;5031567;28;20098;-52
2022/01/21 09:39:45;;;;;;;6.93;3.90;;;-0.50;99.90;;;;;;5031770;28;20506;-50
2022/01/21 09:42:14;;;;;;;8.68;4.03;;;-0.60;99.90;;;;;;5030438;28;20025;-49
2022/01/21 09:44:41;;;;;;;8.88;3.85;;;-0.50;99.90;;;;;;5031704;28;20047;-51
2022/01/21 09:47:10;;;;;;;10.50;3.30;;;-0.40;99.90;;;;;;5031536;28;20168;-50
2022/01/21 09:49:40;;;;;;;6.70;3.72;;;-0.10;99.90;;;;;;5031599;28;20034;-52
2022/01/21 09:52:09;;;;;;;11.35;4.13;;;-0.40;99.90;;;;;;5045215;28;20034;-52
2022/01/21 09:54:37;;;;;;;14.68;4.63;;;-0.50;99.90;;;;;;5031701;28;20399;-51
2022/01/21 09:57:05;;;;;;;12.70;4.45;;;-0.40;99.90;;;;;;5031547;28;20026;-50
2022/01/21 09:59:34;;;;;;;9.65;3.92;;;-0.10;99.90;;;;;;5031468;28;20072;-50
2022/01/21 10:02:05;;;;;;;8.48;4.05;;;0.40;99.90;;;;;;5031224;28;20045;-49
2022/01/21 10:04:34;;;;;;;10.05;3.85;;;1.30;99.60;;;;;;5031398;28;20018;-50
2022/01/21 10:07:02;;;;;;;10.27;4.38;;;1.30;98.10;;;;;;5031047;28;20026;-52
2022/01/21 10:09:28;;;;;;;13.73;4.72;;;1.70;96.60;;;;;;5031474;28;20376;-53
2022/01/21 10:11:55;;;;;;;9.60;5.60;;;3.30;93.80;;;;;;5031252;28;20026;-54
2022/01/21 10:14:29;;;;;;;7.25;3.55;;;2.50;91.60;;;;;;5030025;28;20033;-51
2022/01/21 10:16:56;;;;;;;13.75;5.32;;;1.80;94.00;;;;;;5031248;28;20032;-51
2022/01/21 10:19:27;;;;;;;11.57;5.63;;;1.50;94.10;;;;;;5031550;28;20029;-52
2022/01/21 10:22:06;;;;;;;17.92;6.72;;;0.80;95.60;;;;;;5032307;28;20032;-50
2022/01/21 10:24:35;;;;;;;36.75;12.63;;;0.80;97.30;;;;;;5035392;28;20021;-51
2022/01/21 10:27:02;;;;;;;56.70;22.48;;;1.40;97.30;;;;;;5035152;28;20018;-52
2022/01/21 10:29:41;;;;;;;16.77;6.30;;;2.80;93.70;;;;;;5035381;28;20080;-52
2022/01/21 10:32:08;;;;;;;5.15;3.03;;;3.00;90.90;;;;;;5034303;28;20023;-51
2022/01/21 10:34:40;;;;;;;10.18;3.78;;;3.20;90.10;;;;;;5034308;28;20033;-55
2022/01/21 10:37:39;;;;;;;7.68;3.35;;;2.30;88.80;;;;;;5034733;28;20037;-53
2022/01/21 10:40:09;;;;;;;12.73;7.22;;;2.00;91.20;;;;;;5034626;28;20459;-52
2022/01/21 10:42:36;;;;;;;10.43;4.00;;;2.10;90.40;;;;;;5034629;28;20047;-55
2022/01/21 10:45:07;;;;;;;6.30;3.60;;;1.90;91.10;;;;;;5034718;28;20072;-54
2022/01/21 10:47:45;;;;;;;7.75;2.97;;;2.30;93.00;;;;;;5034915;28;20469;-54
2022/01/21 10:50:14;;;;;;;13.00;3.92;;;3.50;87.60;;;;;;5034783;28;20025;-53
2022/01/21 10:52:51;;;;;;;8.52;4.32;;;1.90;90.30;;;;;;5034282;28;20120;-55
2022/01/21 10:55:26;;;;;;;8.38;3.95;;;1.70;90.60;;;;;;5033273;28;20122;-51
2022/01/21 10:58:10;;;;;;;6.05;3.25;;;2.50;89.60;;;;;;5034621;28;20025;-50
2022/01/21 11:00:36;;;;;;;;;;;2.50;90.50;;;;;;5035201;28;20056;-53
2022/01/21 11:03:13;;;;;;;8.40;4.57;;;2.50;86.90;;;;;;5034771;28;19912;-50
2022/01/21 11:05:44;;;;;;;8.00;4.15;;;1.60;88.40;;;;;;5034428;28;20349;-54
2022/01/21 11:08:12;;;;;;;7.32;4.25;;;1.40;90.80;;;;;;5034728;28;20030;-50
2022/01/21 11:10:43;;;;;;;5.15;3.50;;;1.80;90.50;;;;;;5034293;28;20484;-51
2022/01/21 11:13:12;;;;;;;5.88;2.88;;;3.00;86.40;;;;;;5032870;28;20025;-52
2022/01/21 11:15:42;;;;;;;7.03;4.18;;;2.00;85.80;;;;;;5033460;28;20050;-52
2022/01/21 11:18:13;;;;;;;11.63;4.47;;;1.90;88.80;;;;;;5033145;28;20365;-51
2022/01/21 11:20:41;;;;;;;22.10;8.63;;;2.40;88.00;;;;;;5033131;28;20645;-50
2022/01/21 11:23:08;;;;;;;14.45;6.40;;;2.90;84.80;;;;;;5033445;28;20179;-50
2022/01/21 11:25:50;;;;;;;6.70;3.95;;;2.90;85.70;;;;;;5033088;28;20027;-51
2022/01/21 11:28:17;;;;;;;30.45;14.00;;;3.60;83.50;;;;;;5033046;28;20111;-51
2022/01/21 11:30:43;;;;;;;19.80;9.88;;;4.20;79.50;;;;;;5032801;28;20376;-51
2022/01/21 11:33:09;;;;;;;9.18;4.22;;;3.50;81.50;;;;;;5032629;28;20022;-50
2022/01/21 11:35:35;;;;;;;15.35;6.03;;;3.30;80.90;;;;;;5032921;28;20029;-55
2022/01/21 11:38:08;;;;;;;8.73;2.95;;;2.70;83.90;;;;;;5032863;28;20079;-51
2022/01/21 11:40:34;;;;;;;7.82;2.85;;;3.40;81.70;;;;;;5032893;28;20060;-53
2022/01/21 11:43:02;;;;;;;5.70;2.85;;;4.10;80.90;;;;;;5032540;28;20538;-52
2022/01/21 11:48:49;;;;;;;5.72;2.72;;;5.20;76.10;;;;;;5032284;28;20021;-53
2022/01/21 11:50:49;;;;;;;9.27;3.47;;;3.90;78.00;;;;;;5032514;28;20022;-52
2022/01/21 11:53:35;;;;;;;4.55;3.40;;;3.10;79.70;;;;;;5032597;28;20492;-51
2022/01/21 11:56:06;;;;;;;11.57;3.35;;;2.60;83.80;;;;;;5032326;28;20033;-54
2022/01/21 11:58:32;;;;;;;12.90;3.28;;;1.80;86.90;;;;;;5032597;28;20024;-51
2022/01/21 12:00:58;;;;;;;3.72;3.28;;;1.60;89.20;;;;;;5032388;28;20105;-51
2022/01/21 12:03:43;;;;;;;9.40;4.13;;;1.60;90.50;;;;;;5032431;28;20048;-53
2022/01/21 12:06:32;;;;;;;9.85;3.42;;;1.30;92.10;;;;;;5032303;28;20390;-51
2022/01/21 12:09:00;;;;;;;13.07;5.43;;;0.70;94.80;;;;;;5032318;28;20040;-53
2022/01/21 12:11:31;;;;;;;9.55;4.53;;;1.00;96.30;;;;;;5032396;28;20033;-54
2022/01/21 12:13:57;;;;;;;11.18;4.82;;;0.60;96.70;;;;;;5032093;28;20033;-54
2022/01/21 12:17:31;;;;;;;6.97;4.30;;;0.60;99.00;;;;;;4993150;28;1145173;-52
2022/01/21 12:19:36;;;;;;;6.13;4.05;;;0.50;98.90;;;;;;5035355;28;20512;-54
2022/01/21 12:22:18;;;;;;;11.60;4.30;;;0.60;99.90;;;;;;5033203;28;20167;-50
2022/01/21 12:25:12;;;;;;;6.57;3.83;;;0.70;99.90;;;;;;5032898;28;20021;-52
2022/01/21 12:27:40;;;;;;;9.68;4.20;;;0.80;99.90;;;;;;5033086;28;20032;-53
2022/01/21 12:30:28;;;;;;;15.90;5.22;;;0.70;99.90;;;;;;5033170;28;20022;-55
2022/01/21 12:33:07;;;;;;;15.50;6.88;;;0.70;99.90;;;;;;5031577;28;20412;-50
2022/01/21 12:35:34;;;;;;;21.40;9.98;;;0.70;99.90;;;;;;5033059;28;20030;-54
2022/01/21 12:40:56;;;;;;;11.20;5.38;;;1.50;99.40;;;;;;5032726;28;20035;-55
2022/01/21 12:43:46;;;;;;;29.48;12.70;;;1.00;99.60;;;;;;5032857;28;20080;-51
2022/01/21 12:46:18;;;;;;;11.68;4.70;;;0.80;99.90;;;;;;5032232;28;20052;-54
2022/01/21 12:48:46;;;;;;;17.90;6.53;;;1.00;99.90;;;;;;5032606;28;20079;-53
2022/01/21 12:51:21;;;;;;;16.08;5.78;;;0.90;99.90;;;;;;5032833;28;20092;-49
2022/01/21 12:56:54;;;;;;;18.13;6.05;;;2.10;99.70;;;;;;5032495;28;20159;-53
2022/01/21 12:59:25;;;;;;;29.17;13.48;;;3.40;95.20;;;;;;5031130;28;20465;-52
2022/01/21 13:01:53;;;;;;;16.13;7.32;;;3.30;95.10;;;;;;5032333;28;20036;-51
2022/01/21 13:04:43;;;;;;;9.25;4.60;;;2.90;96.10;;;;;;5032270;28;20025;-51
2022/01/21 13:07:24;;;;;;;8.52;5.78;;;3.30;95.80;;;;;;5032423;28;20025;-50
2022/01/21 13:10:12;;;;;;;14.73;4.32;;;2.30;94.90;;;;;;5032164;28;20372;-50
2022/01/21 13:13:33;;;;;;;10.18;3.90;;;1.70;96.10;;;;;;5032043;28;20021;-50
2022/01/21 13:15:59;;;;;;;8.75;4.97;;;1.30;96.50;;;;;;5029322;28;20144;-50
2022/01/21 13:18:31;;;;;;;6.18;4.53;;;1.40;95.80;;;;;;5029576;28;20025;-52
2022/01/21 13:21:04;;;;;;;9.40;4.22;;;2.90;93.70;;;;;;5030880;28;20037;-52
2022/01/21 13:23:42;;;;;;;9.10;3.42;;;3.70;87.20;;;;;;5030754;28;20026;-53
2022/01/21 13:26:20;;;;;;;9.95;3.10;;;4.60;84.70;;;;;;5032150;28;20037;-51
2022/01/21 13:29:00;;;;;;;11.45;3.17;;;6.30;75.40;;;;;;5031858;28;20018;-51
2022/01/21 13:31:28;;;;;;;6.63;2.90;;;6.60;73.10;;;;;;5031898;28;20022;-50
2022/01/21 13:34:07;;;;;;;10.85;3.58;;;8.50;66.80;;;;;;5031830;28;20028;-51
2022/01/21 13:36:44;;;;;;;9.90;3.50;;;8.20;63.90;;;;;;5031938;28;20025;-50
2022/01/21 13:39:13;;;;;;;9.40;3.13;;;8.40;62.70;;;;;;5030119;28;20109;-50
2022/01/21 13:41:59;;;;;;;11.45;4.18;;;7.70;61.50;;;;;;5031490;28;20195;-51
2022/01/21 13:44:36;;;;;;;6.75;3.92;;;6.90;64.40;;;;;;5031611;28;20032;-52
2022/01/21 13:47:06;;;;;;;12.57;4.25;;;7.50;65.90;;;;;;5031796;28;20049;-54
2022/01/21 13:49:32;;;;;;;6.22;2.97;;;7.00;64.00;;;;;;5031730;28;20030;-52
2022/01/21 13:52:05;;;;;;;12.27;3.53;;;7.00;63.20;;;;;;5031416;28;20033;-54
2022/01/21 13:54:37;;;;;;;7.38;3.70;;;5.90;66.20;;;;;;5031571;28;20029;-51